sensor_id;sensor_type;location;lat;lon;timestamp;pressure;altitude;pressure_sealevel;temperature;humidity
72124;BME280;63818;37.134;-8.548;2023-02-23T00:02:33;101490.2;;;15.5;64.7
72124;BME280;63818;37.134;-8.548;2023-02-23T00:07:19;101488.7;;;15.5;64.6
72124;BME280;63818;37.134;-8.548;2023-02-23T00:12:05;101475.9;;;15.5;64.2
72124;BME280;63818;37.134;-8.548;2023-02-23T00:16:57;101462.4;;;15.5;63.8
72124;BME280;63818;37.134;-8.548;2023-02-23T00:21:44;101458.9;;;15.5;63.9
72124;BME280;63818;37.134;-8.548;2023-02-23T00:26:31;101454.1;;;15.4;63.6
72124;BME280;63818;37.134;-8.548;2023-02-23T00:31:21;101445.8;;;15.5;63.2
72124;BME280;63818;37.134;-8.548;2023-02-23T00:36:09;101448.4;;;15.6;62.2
72124;BME280;63818;37.134;-8.548;2023-02-23T00:41:04;101446.1;;;15.5;61.6
72124;BME280;63818;37.134;-8.548;2023-02-23T00:45:53;101443.6;;;15.4;61.1
72124;BME280;63818;37.134;-8.548;2023-02-23T00:50:40;101447.9;;;15.4;61.2
72124;BME280;63818;37.134;-8.548;2023-02-23T00:55:28;101437.2;;;15.4;61.2
72124;BME280;63818;37.134;-8.548;2023-02-23T01:00:15;101431.7;;;15.4;61.1
72124;BME280;63818;37.134;-8.548;2023-02-23T01:05:01;101432.9;;;15.4;61.1
72124;BME280;63818;37.134;-8.548;2023-02-23T01:09:47;101427.7;;;15.3;61.1
72124;BME280;63818;37.134;-8.548;2023-02-23T01:14:34;101425.6;;;15.3;61.5
72124;BME280;63818;37.134;-8.548;2023-02-23T01:19:22;101427.2;;;15.3;61.3
72124;BME280;63818;37.134;-8.548;2023-02-23T01:28:56;101424.5;;;15.2;61.7
72124;BME280;63818;37.134;-8.548;2023-02-23T01:33:47;101412.6;;;15.2;61.5
72124;BME280;63818;37.134;-8.548;2023-02-23T01:38:33;101415.1;;;15.2;61.2
72124;BME280;63818;37.134;-8.548;2023-02-23T01:43:20;101411.2;;;15.2;61.7
72124;BME280;63818;37.134;-8.548;2023-02-23T01:48:10;101410.7;;;15.2;61.7
72124;BME280;63818;37.134;-8.548;2023-02-23T01:52:57;101419.1;;;15.1;61.5
72124;BME280;63818;37.134;-8.548;2023-02-23T01:57:48;101406.9;;;15.1;61.4
72124;BME280;63818;37.134;-8.548;2023-02-23T02:02:36;101399.5;;;15.1;61.3
72124;BME280;63818;37.134;-8.548;2023-02-23T02:07:25;101403.0;;;15.1;61.6
72124;BME280;63818;37.134;-8.548;2023-02-23T02:12:17;101401.1;;;15.1;61.7
72124;BME280;63818;37.134;-8.548;2023-02-23T02:17:21;101407.2;;;15.1;61.8
72124;BME280;63818;37.134;-8.548;2023-02-23T02:24:21;101397.7;;;15.0;61.7
72124;BME280;63818;37.134;-8.548;2023-02-23T02:29:33;101403.5;;;14.9;62.2
72124;BME280;63818;37.134;-8.548;2023-02-23T02:34:54;101391.9;;;14.9;62.4
72124;BME280;63818;37.134;-8.548;2023-02-23T02:39:50;101389.2;;;14.9;62.5
72124;BME280;63818;37.134;-8.548;2023-02-23T02:44:44;101378.2;;;14.8;62.4
72124;BME280;63818;37.134;-8.548;2023-02-23T02:49:37;101377.5;;;14.8;63.1
72124;BME280;63818;37.134;-8.548;2023-02-23T02:54:30;101368.7;;;14.8;62.9
72124;BME280;63818;37.134;-8.548;2023-02-23T02:59:18;101374.6;;;14.8;63.0
72124;BME280;63818;37.134;-8.548;2023-02-23T03:04:18;101366.8;;;14.8;63.5
72124;BME280;63818;37.134;-8.548;2023-02-23T03:09:23;101363.6;;;14.7;63.5
72124;BME280;63818;37.134;-8.548;2023-02-23T03:14:16;101364.4;;;14.8;63.6
72124;BME280;63818;37.134;-8.548;2023-02-23T03:19:19;101363.9;;;14.7;63.5
72124;BME280;63818;37.134;-8.548;2023-02-23T03:24:13;101361.5;;;14.7;63.8
72124;BME280;63818;37.134;-8.548;2023-02-23T03:29:08;101356.0;;;14.7;64.0
72124;BME280;63818;37.134;-8.548;2023-02-23T03:34:09;101356.1;;;14.6;64.2
72124;BME280;63818;37.134;-8.548;2023-02-23T03:38:57;101356.4;;;14.6;64.2
72124;BME280;63818;37.134;-8.548;2023-02-23T03:43:49;101355.0;;;14.6;64.4
72124;BME280;63818;37.134;-8.548;2023-02-23T03:48:38;101345.8;;;14.6;64.4
72124;BME280;63818;37.134;-8.548;2023-02-23T03:53:28;101343.1;;;14.6;64.1
72124;BME280;63818;37.134;-8.548;2023-02-23T03:58:21;101350.4;;;14.6;64.5
72124;BME280;63818;37.134;-8.548;2023-02-23T04:03:12;101356.0;;;14.6;64.7
72124;BME280;63818;37.134;-8.548;2023-02-23T04:08:02;101344.5;;;14.5;64.4
72124;BME280;63818;37.134;-8.548;2023-02-23T04:13:02;101343.9;;;14.5;63.8
72124;BME280;63818;37.134;-8.548;2023-02-23T04:17:51;101339.6;;;14.5;63.5
72124;BME280;63818;37.134;-8.548;2023-02-23T04:22:40;101334.8;;;14.4;62.6
72124;BME280;63818;37.134;-8.548;2023-02-23T04:27:28;101328.0;;;14.5;62.2
72124;BME280;63818;37.134;-8.548;2023-02-23T04:32:16;101332.9;;;14.4;61.6
72124;BME280;63818;37.134;-8.548;2023-02-23T04:37:02;101325.0;;;14.4;61.7
72124;BME280;63818;37.134;-8.548;2023-02-23T04:41:48;101324.6;;;14.4;61.1
72124;BME280;63818;37.134;-8.548;2023-02-23T04:46:37;101330.9;;;14.4;61.0
72124;BME280;63818;37.134;-8.548;2023-02-23T04:51:23;101334.3;;;14.3;61.2
72124;BME280;63818;37.134;-8.548;2023-02-23T04:56:09;101339.1;;;14.4;60.6
72124;BME280;63818;37.134;-8.548;2023-02-23T05:01:08;101342.3;;;14.4;59.8
72124;BME280;63818;37.134;-8.548;2023-02-23T05:05:54;101333.7;;;14.4;59.4
72124;BME280;63818;37.134;-8.548;2023-02-23T05:10:40;101334.7;;;14.4;59.1
72124;BME280;63818;37.134;-8.548;2023-02-23T05:15:32;101334.5;;;14.4;58.6
72124;BME280;63818;37.134;-8.548;2023-02-23T05:20:18;101330.2;;;14.4;58.4
72124;BME280;63818;37.134;-8.548;2023-02-23T05:25:07;101339.1;;;14.4;57.9
72124;BME280;63818;37.134;-8.548;2023-02-23T05:29:55;101326.9;;;14.4;58.1
72124;BME280;63818;37.134;-8.548;2023-02-23T05:34:42;101323.4;;;14.4;57.8
72124;BME280;63818;37.134;-8.548;2023-02-23T05:39:30;101330.7;;;14.4;58.0
72124;BME280;63818;37.134;-8.548;2023-02-23T05:44:17;101333.2;;;14.3;57.0
72124;BME280;63818;37.134;-8.548;2023-02-23T05:49:03;101329.7;;;14.2;57.3
72124;BME280;63818;37.134;-8.548;2023-02-23T05:53:52;101337.3;;;14.3;57.4
72124;BME280;63818;37.134;-8.548;2023-02-23T05:58:44;101336.5;;;14.3;57.3
72124;BME280;63818;37.134;-8.548;2023-02-23T06:03:30;101337.0;;;14.3;57.5
72124;BME280;63818;37.134;-8.548;2023-02-23T06:08:17;101336.7;;;14.3;57.1
72124;BME280;63818;37.134;-8.548;2023-02-23T06:13:06;101348.1;;;14.2;57.3
72124;BME280;63818;37.134;-8.548;2023-02-23T06:17:54;101349.1;;;14.3;57.4
72124;BME280;63818;37.134;-8.548;2023-02-23T06:22:42;101351.8;;;14.3;56.8
72124;BME280;63818;37.134;-8.548;2023-02-23T06:27:28;101345.7;;;14.2;57.0
72124;BME280;63818;37.134;-8.548;2023-02-23T06:32:14;101343.6;;;14.0;56.4
72124;BME280;63818;37.134;-8.548;2023-02-23T06:37:00;101341.6;;;14.1;56.4
72124;BME280;63818;37.134;-8.548;2023-02-23T06:41:46;101351.1;;;14.1;56.1
72124;BME280;63818;37.134;-8.548;2023-02-23T06:46:35;101355.1;;;14.1;55.8
72124;BME280;63818;37.134;-8.548;2023-02-23T06:51:21;101345.1;;;14.1;55.9
72124;BME280;63818;37.134;-8.548;2023-02-23T06:56:07;101355.4;;;14.1;55.0
72124;BME280;63818;37.134;-8.548;2023-02-23T07:00:55;101357.1;;;14.0;54.3
72124;BME280;63818;37.134;-8.548;2023-02-23T07:05:42;101363.6;;;13.9;54.1
72124;BME280;63818;37.134;-8.548;2023-02-23T07:10:28;101362.5;;;13.8;52.8
72124;BME280;63818;37.134;-8.548;2023-02-23T07:15:17;101368.2;;;13.9;51.7
72124;BME280;63818;37.134;-8.548;2023-02-23T07:20:03;101368.1;;;13.9;50.9
72124;BME280;63818;37.134;-8.548;2023-02-23T07:24:50;101371.5;;;13.8;50.1
72124;BME280;63818;37.134;-8.548;2023-02-23T07:29:36;101386.3;;;13.9;49.2
72124;BME280;63818;37.134;-8.548;2023-02-23T07:34:22;101376.8;;;13.9;49.2
72124;BME280;63818;37.134;-8.548;2023-02-23T07:39:08;101390.0;;;13.9;48.9
72124;BME280;63818;37.134;-8.548;2023-02-23T07:43:56;101385.9;;;13.9;49.0
72124;BME280;63818;37.134;-8.548;2023-02-23T07:48:56;101385.1;;;13.9;48.5
72124;BME280;63818;37.134;-8.548;2023-02-23T07:53:43;101381.7;;;13.9;48.4
72124;BME280;63818;37.134;-8.548;2023-02-23T07:58:30;101389.4;;;13.9;48.5
72124;BME280;63818;37.134;-8.548;2023-02-23T08:03:16;101393.7;;;13.9;48.4
72124;BME280;63818;37.134;-8.548;2023-02-23T08:08:04;101404.8;;;13.9;48.3
72124;BME280;63818;37.134;-8.548;2023-02-23T08:12:51;101411.2;;;13.9;48.1
72124;BME280;63818;37.134;-8.548;2023-02-23T08:17:38;101422.6;;;13.9;48.2
72124;BME280;63818;37.134;-8.548;2023-02-23T08:22:31;101425.6;;;13.9;48.3
72124;BME280;63818;37.134;-8.548;2023-02-23T08:27:18;101435.3;;;13.9;48.4
72124;BME280;63818;37.134;-8.548;2023-02-23T08:32:04;101430.4;;;13.9;49.6
72124;BME280;63818;37.134;-8.548;2023-02-23T08:36:51;101418.8;;;13.8;48.4
72124;BME280;63818;37.134;-8.548;2023-02-23T08:41:37;101425.9;;;13.9;48.3
72124;BME280;63818;37.134;-8.548;2023-02-23T08:46:25;101418.7;;;13.7;48.0
72124;BME280;63818;37.134;-8.548;2023-02-23T08:51:12;101427.5;;;13.8;48.6
72124;BME280;63818;37.134;-8.548;2023-02-23T08:56:00;101424.9;;;13.8;49.0
72124;BME280;63818;37.134;-8.548;2023-02-23T09:00:47;101421.9;;;13.8;49.0
72124;BME280;63818;37.134;-8.548;2023-02-23T09:05:35;101404.5;;;13.8;47.8
72124;BME280;63818;37.134;-8.548;2023-02-23T09:10:24;101415.6;;;13.9;47.9
72124;BME280;63818;37.134;-8.548;2023-02-23T09:15:11;101408.1;;;13.9;47.3
72124;BME280;63818;37.134;-8.548;2023-02-23T09:20:01;101413.1;;;14.0;47.3
72124;BME280;63818;37.134;-8.548;2023-02-23T09:24:48;101396.2;;;13.9;45.7
72124;BME280;63818;37.134;-8.548;2023-02-23T09:29:34;101393.0;;;13.8;44.9
72124;BME280;63818;37.134;-8.548;2023-02-23T09:34:26;101399.2;;;13.8;44.4
72124;BME280;63818;37.134;-8.548;2023-02-23T09:39:12;101396.0;;;13.8;45.2
72124;BME280;63818;37.134;-8.548;2023-02-23T09:44:02;101384.6;;;13.9;44.7
72124;BME280;63818;37.134;-8.548;2023-02-23T09:48:50;101374.7;;;13.8;44.8
72124;BME280;63818;37.134;-8.548;2023-02-23T09:53:39;101385.7;;;13.9;44.9
72124;BME280;63818;37.134;-8.548;2023-02-23T09:58:32;101381.4;;;13.8;44.5
72124;BME280;63818;37.134;-8.548;2023-02-23T10:03:21;101373.8;;;13.9;45.0
72124;BME280;63818;37.134;-8.548;2023-02-23T10:08:15;101370.4;;;13.8;44.7
72124;BME280;63818;37.134;-8.548;2023-02-23T10:13:13;101364.0;;;13.8;44.3
72124;BME280;63818;37.134;-8.548;2023-02-23T11:42:59;101277.8;;;15.1;40.5
72124;BME280;63818;37.134;-8.548;2023-02-23T11:47:50;101269.4;;;14.9;40.6
72124;BME280;63818;37.134;-8.548;2023-02-23T11:52:41;101262.6;;;14.6;40.9
72124;BME280;63818;37.134;-8.548;2023-02-23T11:57:32;101262.9;;;14.5;41.4
72124;BME280;63818;37.134;-8.548;2023-02-23T12:02:48;101243.2;;;14.4;40.9
72124;BME280;63818;37.134;-8.548;2023-02-23T12:07:42;101254.0;;;14.4;41.6
72124;BME280;63818;37.134;-8.548;2023-02-23T12:12:42;101233.5;;;14.4;41.1
72124;BME280;63818;37.134;-8.548;2023-02-23T12:17:34;101244.8;;;14.4;41.6
72124;BME280;63818;37.134;-8.548;2023-02-23T12:22:29;101232.1;;;14.4;42.1
72124;BME280;63818;37.134;-8.548;2023-02-23T12:27:22;101220.0;;;14.4;40.7
72124;BME280;63818;37.134;-8.548;2023-02-23T12:32:18;101217.9;;;14.4;41.2
72124;BME280;63818;37.134;-8.548;2023-02-23T12:37:14;101208.4;;;14.4;41.4
72124;BME280;63818;37.134;-8.548;2023-02-23T12:42:06;101190.9;;;14.5;41.5
72124;BME280;63818;37.134;-8.548;2023-02-23T12:47:00;101179.6;;;14.5;41.8
72124;BME280;63818;37.134;-8.548;2023-02-23T12:51:54;101175.4;;;14.6;42.7
72124;BME280;63818;37.134;-8.548;2023-02-23T12:56:54;101170.2;;;14.6;43.0
72124;BME280;63818;37.134;-8.548;2023-02-23T13:01:49;101164.0;;;14.6;42.7
72124;BME280;63818;37.134;-8.548;2023-02-23T13:06:49;101156.2;;;14.6;43.2
72124;BME280;63818;37.134;-8.548;2023-02-23T13:11:56;101139.4;;;14.5;42.6
72124;BME280;63818;37.134;-8.548;2023-02-23T13:16:51;101132.8;;;14.6;42.8
72124;BME280;63818;37.134;-8.548;2023-02-23T13:21:44;101132.5;;;14.6;42.9
72124;BME280;63818;37.134;-8.548;2023-02-23T13:26:41;101124.5;;;14.6;43.4
72124;BME280;63818;37.134;-8.548;2023-02-23T13:31:35;101106.6;;;14.7;43.5
72124;BME280;63818;37.134;-8.548;2023-02-23T13:36:25;101115.8;;;14.8;42.6
72124;BME280;63818;37.134;-8.548;2023-02-23T13:41:25;101089.5;;;14.9;43.0
72124;BME280;63818;37.134;-8.548;2023-02-23T13:46:24;101075.6;;;15.0;43.1
72124;BME280;63818;37.134;-8.548;2023-02-23T13:51:20;101081.3;;;15.1;44.6
72124;BME280;63818;37.134;-8.548;2023-02-23T13:56:15;101073.1;;;15.2;45.0
72124;BME280;63818;37.134;-8.548;2023-02-23T14:01:09;101079.7;;;15.2;45.6
72124;BME280;63818;37.134;-8.548;2023-02-23T14:05:59;101067.5;;;15.2;44.8
72124;BME280;63818;37.134;-8.548;2023-02-23T14:11:11;101049.2;;;15.3;44.3
72124;BME280;63818;37.134;-8.548;2023-02-23T14:16:18;101053.4;;;15.4;44.5
72124;BME280;63818;37.134;-8.548;2023-02-23T14:21:21;101044.1;;;15.5;44.8
72124;BME280;63818;37.134;-8.548;2023-02-23T14:29:22;101037.0;;;15.8;44.5
72124;BME280;63818;37.134;-8.548;2023-02-23T14:43:50;101014.9;;;16.7;41.1
72124;BME280;63818;37.134;-8.548;2023-02-23T14:53:09;101003.6;;;17.3;40.5
72124;BME280;63818;37.134;-8.548;2023-02-23T14:57:55;101009.0;;;17.8;39.0
72124;BME280;63818;37.134;-8.548;2023-02-23T15:03:06;100996.9;;;19.6;36.6
72124;BME280;63818;37.134;-8.548;2023-02-23T15:07:58;100993.8;;;20.4;36.0
72124;BME280;63818;37.134;-8.548;2023-02-23T16:23:49;100945.9;;;23.1;28.5
72124;BME280;63818;37.134;-8.548;2023-02-23T16:28:36;100964.5;;;22.7;29.1
72124;BME280;63818;37.134;-8.548;2023-02-23T16:33:27;100950.0;;;22.0;30.1
72124;BME280;63818;37.134;-8.548;2023-02-23T16:38:24;100971.8;;;21.6;30.8
72124;BME280;63818;37.134;-8.548;2023-02-23T16:43:04;100951.7;;;20.8;32.2
72124;BME280;63818;37.134;-8.548;2023-02-23T16:47:50;100959.9;;;20.2;33.5
72124;BME280;63818;37.134;-8.548;2023-02-23T16:52:48;100963.0;;;19.7;34.5
72124;BME280;63818;37.134;-8.548;2023-02-23T17:00:04;100965.8;;;19.6;34.3
72124;BME280;63818;37.134;-8.548;2023-02-23T17:04:51;100967.6;;;19.1;34.4
72124;BME280;63818;37.134;-8.548;2023-02-23T17:09:36;100971.0;;;18.9;34.4
72124;BME280;63818;37.134;-8.548;2023-02-23T17:14:24;100963.6;;;18.7;35.0
72124;BME280;63818;37.134;-8.548;2023-02-23T17:19:11;100971.9;;;18.4;35.5
72124;BME280;63818;37.134;-8.548;2023-02-23T17:24:02;100971.6;;;18.1;35.9
72124;BME280;63818;37.134;-8.548;2023-02-23T17:28:49;100972.7;;;18.1;36.5
72124;BME280;63818;37.134;-8.548;2023-02-23T17:33:36;100976.3;;;17.7;37.2
72124;BME280;63818;37.134;-8.548;2023-02-23T17:38:22;100976.2;;;17.5;37.4
72124;BME280;63818;37.134;-8.548;2023-02-23T17:43:08;100993.8;;;17.4;37.9
72124;BME280;63818;37.134;-8.548;2023-02-23T17:47:58;100991.3;;;17.2;38.1
72124;BME280;63818;37.134;-8.548;2023-02-23T17:52:45;100983.2;;;17.1;37.9
72124;BME280;63818;37.134;-8.548;2023-02-23T17:57:32;100997.9;;;16.9;38.3
72124;BME280;63818;37.134;-8.548;2023-02-23T18:02:20;100987.7;;;16.9;38.3
72124;BME280;63818;37.134;-8.548;2023-02-23T18:07:10;100989.4;;;16.7;38.2
72124;BME280;63818;37.134;-8.548;2023-02-23T18:11:56;100988.0;;;16.6;38.8
72124;BME280;63818;37.134;-8.548;2023-02-23T18:16:41;100996.8;;;16.5;39.2
72124;BME280;63818;37.134;-8.548;2023-02-23T18:21:27;100998.0;;;16.4;39.5
72124;BME280;63818;37.134;-8.548;2023-02-23T18:26:22;101006.3;;;16.3;39.8
72124;BME280;63818;37.134;-8.548;2023-02-23T18:31:10;100999.9;;;16.2;40.1
72124;BME280;63818;37.134;-8.548;2023-02-23T18:35:57;100996.3;;;16.2;40.2
72124;BME280;63818;37.134;-8.548;2023-02-23T18:40:53;101001.5;;;16.1;40.3
72124;BME280;63818;37.134;-8.548;2023-02-23T18:45:39;101009.3;;;16.0;40.9
72124;BME280;63818;37.134;-8.548;2023-02-23T18:50:30;101018.8;;;16.0;41.4
72124;BME280;63818;37.134;-8.548;2023-02-23T18:55:16;101018.3;;;15.8;42.0
72124;BME280;63818;37.134;-8.548;2023-02-23T19:00:05;101029.0;;;15.7;42.5
72124;BME280;63818;37.134;-8.548;2023-02-23T19:04:51;101024.9;;;15.6;42.7
72124;BME280;63818;37.134;-8.548;2023-02-23T19:09:50;101025.1;;;15.7;42.3
72124;BME280;63818;37.134;-8.548;2023-02-23T19:14:38;101027.1;;;15.6;42.5
72124;BME280;63818;37.134;-8.548;2023-02-23T19:19:27;101030.5;;;15.5;42.4
72124;BME280;63818;37.134;-8.548;2023-02-23T19:24:13;101031.9;;;15.4;42.2
72124;BME280;63818;37.134;-8.548;2023-02-23T19:28:59;101035.1;;;15.3;42.5
72124;BME280;63818;37.134;-8.548;2023-02-23T19:33:47;101041.1;;;15.3;42.6
72124;BME280;63818;37.134;-8.548;2023-02-23T19:38:33;101025.1;;;15.3;42.7
72124;BME280;63818;37.134;-8.548;2023-02-23T19:43:19;101031.7;;;15.2;42.8
72124;BME280;63818;37.134;-8.548;2023-02-23T19:48:05;101030.4;;;15.1;43.1
72124;BME280;63818;37.134;-8.548;2023-02-23T19:52:52;101046.0;;;15.1;43.2
72124;BME280;63818;37.134;-8.548;2023-02-23T19:57:40;101045.3;;;15.1;43.2
72124;BME280;63818;37.134;-8.548;2023-02-23T20:02:26;101044.2;;;15.1;43.8
72124;BME280;63818;37.134;-8.548;2023-02-23T20:07:12;101044.9;;;15.1;43.8
72124;BME280;63818;37.134;-8.548;2023-02-23T20:12:00;101047.6;;;15.1;44.0
72124;BME280;63818;37.134;-8.548;2023-02-23T20:16:47;101051.4;;;15.0;44.0
72124;BME280;63818;37.134;-8.548;2023-02-23T20:21:33;101067.8;;;15.0;44.5
72124;BME280;63818;37.134;-8.548;2023-02-23T20:26:22;101053.2;;;15.0;44.7
72124;BME280;63818;37.134;-8.548;2023-02-23T20:31:12;101062.3;;;14.9;44.5
72124;BME280;63818;37.134;-8.548;2023-02-23T20:36:01;101053.7;;;14.7;44.9
72124;BME280;63818;37.134;-8.548;2023-02-23T20:40:47;101057.2;;;14.7;45.1
72124;BME280;63818;37.134;-8.548;2023-02-23T20:45:35;101058.8;;;14.8;45.3
72124;BME280;63818;37.134;-8.548;2023-02-23T20:50:23;101074.2;;;14.8;45.4
72124;BME280;63818;37.134;-8.548;2023-02-23T20:55:11;101066.7;;;14.8;45.6
72124;BME280;63818;37.134;-8.548;2023-02-23T21:00:05;101073.0;;;14.8;45.9
72124;BME280;63818;37.134;-8.548;2023-02-23T21:04:53;101072.2;;;14.8;45.7
72124;BME280;63818;37.134;-8.548;2023-02-23T21:09:39;101075.8;;;14.7;46.0
72124;BME280;63818;37.134;-8.548;2023-02-23T21:14:25;101075.5;;;14.6;46.4
72124;BME280;63818;37.134;-8.548;2023-02-23T21:19:13;101073.1;;;14.3;46.6
72124;BME280;63818;37.134;-8.548;2023-02-23T21:23:59;101085.5;;;14.1;46.9
72124;BME280;63818;37.134;-8.548;2023-02-23T21:28:45;101092.0;;;13.8;47.7
72124;BME280;63818;37.134;-8.548;2023-02-23T21:33:37;101091.2;;;13.6;48.8
72124;BME280;63818;37.134;-8.548;2023-02-23T21:38:24;101088.6;;;13.6;48.8
72124;BME280;63818;37.134;-8.548;2023-02-23T21:43:10;101093.1;;;13.5;48.9
72124;BME280;63818;37.134;-8.548;2023-02-23T21:47:56;101095.9;;;13.4;49.2
72124;BME280;63818;37.134;-8.548;2023-02-23T21:52:45;101101.5;;;13.4;49.3
72124;BME280;63818;37.134;-8.548;2023-02-23T21:57:34;101096.2;;;13.3;49.6
72124;BME280;63818;37.134;-8.548;2023-02-23T22:02:20;101095.0;;;13.4;49.2
72124;BME280;63818;37.134;-8.548;2023-02-23T22:07:07;101084.3;;;13.3;48.8
72124;BME280;63818;37.134;-8.548;2023-02-23T22:11:53;101077.0;;;13.2;48.8
72124;BME280;63818;37.134;-8.548;2023-02-23T22:16:42;101075.4;;;13.2;48.9
72124;BME280;63818;37.134;-8.548;2023-02-23T22:21:30;101061.6;;;13.2;48.8
72124;BME280;63818;37.134;-8.548;2023-02-23T22:26:16;101068.9;;;13.3;48.4
72124;BME280;63818;37.134;-8.548;2023-02-23T22:31:04;101068.6;;;13.6;47.4
72124;BME280;63818;37.134;-8.548;2023-02-23T22:35:54;101070.7;;;13.7;47.0
72124;BME280;63818;37.134;-8.548;2023-02-23T22:40:50;101068.6;;;13.8;46.3
72124;BME280;63818;37.134;-8.548;2023-02-23T22:45:37;101078.1;;;13.8;46.5
72124;BME280;63818;37.134;-8.548;2023-02-23T22:50:23;101076.5;;;13.7;46.3
72124;BME280;63818;37.134;-8.548;2023-02-23T22:55:09;101083.0;;;13.7;46.1
72124;BME280;63818;37.134;-8.548;2023-02-23T22:59:55;101079.9;;;13.7;46.1
72124;BME280;63818;37.134;-8.548;2023-02-23T23:04:41;101077.0;;;13.7;46.5
72124;BME280;63818;37.134;-8.548;2023-02-23T23:09:34;101083.4;;;13.6;46.5
72124;BME280;63818;37.134;-8.548;2023-02-23T23:14:21;101075.1;;;13.7;46.7
72124;BME280;63818;37.134;-8.548;2023-02-23T23:19:08;101082.4;;;13.7;47.1
72124;BME280;63818;37.134;-8.548;2023-02-23T23:23:55;101079.4;;;13.8;46.8
72124;BME280;63818;37.134;-8.548;2023-02-23T23:28:47;101076.9;;;13.7;46.9
72124;BME280;63818;37.134;-8.548;2023-02-23T23:33:34;101070.7;;;13.7;47.1
72124;BME280;63818;37.134;-8.548;2023-02-23T23:38:22;101068.8;;;13.6;47.6
72124;BME280;63818;37.134;-8.548;2023-02-23T23:43:11;101063.2;;;13.4;47.6
72124;BME280;63818;37.134;-8.548;2023-02-23T23:47:57;101061.6;;;13.3;47.9
72124;BME280;63818;37.134;-8.548;2023-02-23T23:52:43;101068.1;;;13.2;48.2
72124;BME280;63818;37.134;-8.548;2023-02-23T23:57:31;101070.7;;;13.3;48.4
